sensor_id;sensor_type;location;lat;lon;timestamp;temperature;humidity
67275;DHT22;55463;52.324;5.122;2023-05-19T00:01:07;9.72;85.16
67275;DHT22;55463;52.324;5.122;2023-05-19T00:03:34;9.73;84.80
67275;DHT22;55463;52.324;5.122;2023-05-19T00:06:01;9.70;85.46
67275;DHT22;55463;52.324;5.122;2023-05-19T00:08:30;9.67;84.67
67275;DHT22;55463;52.324;5.122;2023-05-19T00:10:56;9.66;84.75
67275;DHT22;55463;52.324;5.122;2023-05-19T00:13:22;9.65;85.17
67275;DHT22;55463;52.324;5.122;2023-05-19T00:15:48;9.62;85.59
67275;DHT22;55463;52.324;5.122;2023-05-19T00:18:15;9.57;85.78
67275;DHT22;55463;52.324;5.122;2023-05-19T00:20:41;9.57;85.58
67275;DHT22;55463;52.324;5.122;2023-05-19T00:23:07;9.53;85.98
67275;DHT22;55463;52.324;5.122;2023-05-19T00:25:32;9.48;86.73
67275;DHT22;55463;52.324;5.122;2023-05-19T00:27:57;9.46;87.14
67275;DHT22;55463;52.324;5.122;2023-05-19T00:30:23;9.46;85.92
67275;DHT22;55463;52.324;5.122;2023-05-19T00:32:49;9.42;86.42
67275;DHT22;55463;52.324;5.122;2023-05-19T00:35:15;9.42;87.08
67275;DHT22;55463;52.324;5.122;2023-05-19T00:37:40;9.39;85.96
67275;DHT22;55463;52.324;5.122;2023-05-19T00:40:06;9.36;87.01
67275;DHT22;55463;52.324;5.122;2023-05-19T00:42:32;9.35;87.40
67275;DHT22;55463;52.324;5.122;2023-05-19T00:44:57;9.31;87.19
67275;DHT22;55463;52.324;5.122;2023-05-19T00:47:23;9.29;87.62
67275;DHT22;55463;52.324;5.122;2023-05-19T00:49:48;9.24;87.47
67275;DHT22;55463;52.324;5.122;2023-05-19T00:52:14;9.24;87.62
67275;DHT22;55463;52.324;5.122;2023-05-19T00:54:39;9.22;87.58
67275;DHT22;55463;52.324;5.122;2023-05-19T00:57:05;9.22;87.97
67275;DHT22;55463;52.324;5.122;2023-05-19T00:59:30;9.17;88.53
67275;DHT22;55463;52.324;5.122;2023-05-19T01:01:56;9.17;88.12
67275;DHT22;55463;52.324;5.122;2023-05-19T01:04:21;9.15;88.71
67275;DHT22;55463;52.324;5.122;2023-05-19T01:06:50;9.12;88.94
67275;DHT22;55463;52.324;5.122;2023-05-19T01:09:20;9.11;87.84
67275;DHT22;55463;52.324;5.122;2023-05-19T01:11:45;9.11;88.09
67275;DHT22;55463;52.324;5.122;2023-05-19T01:14:11;9.08;88.07
67275;DHT22;55463;52.324;5.122;2023-05-19T01:16:41;9.05;88.01
67275;DHT22;55463;52.324;5.122;2023-05-19T01:25:07;9.00;89.06
67275;DHT22;55463;52.324;5.122;2023-05-19T01:32:57;8.96;88.60
67275;DHT22;55463;52.324;5.122;2023-05-19T01:35:24;8.94;88.75
67275;DHT22;55463;52.324;5.122;2023-05-19T01:38:00;8.91;88.84
67275;DHT22;55463;52.324;5.122;2023-05-19T01:40:27;8.88;89.27
67275;DHT22;55463;52.324;5.122;2023-05-19T01:42:54;8.87;89.57
67275;DHT22;55463;52.324;5.122;2023-05-19T01:45:20;8.83;89.14
67275;DHT22;55463;52.324;5.122;2023-05-19T01:47:48;8.84;90.01
67275;DHT22;55463;52.324;5.122;2023-05-19T01:50:13;8.83;90.92
67275;DHT22;55463;52.324;5.122;2023-05-19T01:52:39;8.79;90.82
67275;DHT22;55463;52.324;5.122;2023-05-19T01:55:05;8.81;89.81
67275;DHT22;55463;52.324;5.122;2023-05-19T02:08:29;8.77;91.16
67275;DHT22;55463;52.324;5.122;2023-05-19T02:11:02;8.77;90.12
67275;DHT22;55463;52.324;5.122;2023-05-19T02:13:35;8.75;91.51
67275;DHT22;55463;52.324;5.122;2023-05-19T02:16:04;8.76;90.22
67275;DHT22;55463;52.324;5.122;2023-05-19T02:18:32;8.77;90.04
67275;DHT22;55463;52.324;5.122;2023-05-19T02:20:57;8.73;91.19
67275;DHT22;55463;52.324;5.122;2023-05-19T02:23:23;8.76;91.06
67275;DHT22;55463;52.324;5.122;2023-05-19T02:25:48;8.73;91.98
67275;DHT22;55463;52.324;5.122;2023-05-19T02:28:14;8.73;90.84
67275;DHT22;55463;52.324;5.122;2023-05-19T02:30:40;8.75;91.76
67275;DHT22;55463;52.324;5.122;2023-05-19T02:33:05;8.75;91.40
67275;DHT22;55463;52.324;5.122;2023-05-19T02:35:31;8.77;91.78
67275;DHT22;55463;52.324;5.122;2023-05-19T02:37:57;8.77;91.65
67275;DHT22;55463;52.324;5.122;2023-05-19T02:40:23;8.77;92.68
67275;DHT22;55463;52.324;5.122;2023-05-19T02:42:48;8.76;91.23
67275;DHT22;55463;52.324;5.122;2023-05-19T02:45:14;8.73;92.78
67275;DHT22;55463;52.324;5.122;2023-05-19T02:47:39;8.75;92.15
67275;DHT22;55463;52.324;5.122;2023-05-19T02:50:06;8.75;92.04
67275;DHT22;55463;52.324;5.122;2023-05-19T02:52:32;8.75;92.34
67275;DHT22;55463;52.324;5.122;2023-05-19T02:54:57;8.77;93.19
67275;DHT22;55463;52.324;5.122;2023-05-19T02:57:22;8.77;92.66
67275;DHT22;55463;52.324;5.122;2023-05-19T02:59:48;8.77;92.27
67275;DHT22;55463;52.324;5.122;2023-05-19T03:02:13;8.75;92.34
67275;DHT22;55463;52.324;5.122;2023-05-19T03:04:39;8.73;93.60
67275;DHT22;55463;52.324;5.122;2023-05-19T03:07:06;8.70;94.19
67275;DHT22;55463;52.324;5.122;2023-05-19T03:09:35;8.70;94.19
67275;DHT22;55463;52.324;5.122;2023-05-19T03:12:00;8.69;93.94
67275;DHT22;55463;52.324;5.122;2023-05-19T03:14:28;8.66;93.88
67275;DHT22;55463;52.324;5.122;2023-05-19T03:16:54;8.65;93.98
67275;DHT22;55463;52.324;5.122;2023-05-19T03:19:20;8.65;94.21
67275;DHT22;55463;52.324;5.122;2023-05-19T03:21:45;8.63;94.27
67275;DHT22;55463;52.324;5.122;2023-05-19T03:24:11;8.62;93.94
67275;DHT22;55463;52.324;5.122;2023-05-19T03:26:37;8.59;93.69
67275;DHT22;55463;52.324;5.122;2023-05-19T03:29:02;8.53;93.80
67275;DHT22;55463;52.324;5.122;2023-05-19T03:31:28;8.57;93.84
67275;DHT22;55463;52.324;5.122;2023-05-19T03:33:54;8.52;94.44
67275;DHT22;55463;52.324;5.122;2023-05-19T03:36:22;8.49;93.50
67275;DHT22;55463;52.324;5.122;2023-05-19T03:38:47;8.50;93.77
67275;DHT22;55463;52.324;5.122;2023-05-19T03:41:13;8.44;93.91
67275;DHT22;55463;52.324;5.122;2023-05-19T03:43:38;8.45;94.19
67275;DHT22;55463;52.324;5.122;2023-05-19T03:46:04;8.42;94.47
67275;DHT22;55463;52.324;5.122;2023-05-19T03:48:29;8.44;93.84
67275;DHT22;55463;52.324;5.122;2023-05-19T03:50:55;8.42;94.04
67275;DHT22;55463;52.324;5.122;2023-05-19T03:53:20;8.41;94.81
67275;DHT22;55463;52.324;5.122;2023-05-19T03:55:46;8.39;94.67
67275;DHT22;55463;52.324;5.122;2023-05-19T03:58:12;8.38;94.89
67275;DHT22;55463;52.324;5.122;2023-05-19T04:00:39;8.41;94.74
67275;DHT22;55463;52.324;5.122;2023-05-19T04:03:04;8.41;94.80
67275;DHT22;55463;52.324;5.122;2023-05-19T04:05:30;8.41;94.34
67275;DHT22;55463;52.324;5.122;2023-05-19T04:07:55;8.42;94.79
67275;DHT22;55463;52.324;5.122;2023-05-19T04:10:21;8.38;95.26
67275;DHT22;55463;52.324;5.122;2023-05-19T04:12:46;8.41;94.80
67275;DHT22;55463;52.324;5.122;2023-05-19T04:15:12;8.44;95.54
67275;DHT22;55463;52.324;5.122;2023-05-19T04:17:38;8.41;95.90
67275;DHT22;55463;52.324;5.122;2023-05-19T04:20:04;8.44;94.56
67275;DHT22;55463;52.324;5.122;2023-05-19T04:22:32;8.46;95.51
67275;DHT22;55463;52.324;5.122;2023-05-19T04:24:58;8.50;94.51
67275;DHT22;55463;52.324;5.122;2023-05-19T04:27:24;8.48;95.70
67275;DHT22;55463;52.324;5.122;2023-05-19T04:29:52;8.52;95.14
67275;DHT22;55463;52.324;5.122;2023-05-19T04:32:18;8.49;95.60
67275;DHT22;55463;52.324;5.122;2023-05-19T04:34:44;8.52;95.83
67275;DHT22;55463;52.324;5.122;2023-05-19T04:37:13;8.56;94.49
67275;DHT22;55463;52.324;5.122;2023-05-19T04:39:40;8.56;95.37
67275;DHT22;55463;52.324;5.122;2023-05-19T04:42:09;8.63;95.54
67275;DHT22;55463;52.324;5.122;2023-05-19T04:44:36;8.65;95.48
67275;DHT22;55463;52.324;5.122;2023-05-19T04:47:02;8.67;95.08
67275;DHT22;55463;52.324;5.122;2023-05-19T04:49:30;8.69;94.88
67275;DHT22;55463;52.324;5.122;2023-05-19T04:52:06;8.70;95.38
67275;DHT22;55463;52.324;5.122;2023-05-19T04:54:33;8.79;95.41
67275;DHT22;55463;52.324;5.122;2023-05-19T04:56:59;8.80;94.63
67275;DHT22;55463;52.324;5.122;2023-05-19T04:59:25;8.87;95.22
67275;DHT22;55463;52.324;5.122;2023-05-19T05:01:50;8.88;95.78
67275;DHT22;55463;52.324;5.122;2023-05-19T05:04:16;8.93;94.68
67275;DHT22;55463;52.324;5.122;2023-05-19T05:06:41;8.97;95.13
67275;DHT22;55463;52.324;5.122;2023-05-19T05:09:12;9.01;94.94
67275;DHT22;55463;52.324;5.122;2023-05-19T05:11:37;9.04;94.61
67275;DHT22;55463;52.324;5.122;2023-05-19T05:14:03;9.07;94.28
67275;DHT22;55463;52.324;5.122;2023-05-19T05:16:29;9.12;95.30
67275;DHT22;55463;52.324;5.122;2023-05-19T05:18:55;9.18;94.78
67275;DHT22;55463;52.324;5.122;2023-05-19T05:21:21;9.27;94.37
67275;DHT22;55463;52.324;5.122;2023-05-19T05:23:49;9.29;94.07
67275;DHT22;55463;52.324;5.122;2023-05-19T05:26:19;9.38;94.18
67275;DHT22;55463;52.324;5.122;2023-05-19T05:28:47;9.46;94.34
67275;DHT22;55463;52.324;5.122;2023-05-19T05:31:13;9.59;94.21
67275;DHT22;55463;52.324;5.122;2023-05-19T05:33:38;9.73;93.71
67275;DHT22;55463;52.324;5.122;2023-05-19T05:36:04;9.86;93.61
67275;DHT22;55463;52.324;5.122;2023-05-19T05:38:30;9.95;92.44
67275;DHT22;55463;52.324;5.122;2023-05-19T05:40:55;10.15;92.53
67275;DHT22;55463;52.324;5.122;2023-05-19T05:43:20;10.29;92.47
67275;DHT22;55463;52.324;5.122;2023-05-19T05:45:46;10.55;93.34
67275;DHT22;55463;52.324;5.122;2023-05-19T05:48:12;10.79;92.13
67275;DHT22;55463;52.324;5.122;2023-05-19T05:50:37;10.94;91.98
67275;DHT22;55463;52.324;5.122;2023-05-19T05:53:04;11.06;91.33
67275;DHT22;55463;52.324;5.122;2023-05-19T05:55:31;11.39;91.33
67275;DHT22;55463;52.324;5.122;2023-05-19T05:57:57;11.61;90.53
67275;DHT22;55463;52.324;5.122;2023-05-19T06:00:23;11.69;89.40
67275;DHT22;55463;52.324;5.122;2023-05-19T06:02:49;11.98;89.73
67275;DHT22;55463;52.324;5.122;2023-05-19T06:05:15;11.98;87.22
67275;DHT22;55463;52.324;5.122;2023-05-19T06:07:41;11.97;87.53
67275;DHT22;55463;52.324;5.122;2023-05-19T06:10:08;12.11;87.14
67275;DHT22;55463;52.324;5.122;2023-05-19T06:12:35;12.48;87.03
67275;DHT22;55463;52.324;5.122;2023-05-19T06:15:06;12.67;84.19
67275;DHT22;55463;52.324;5.122;2023-05-19T06:17:32;12.59;83.62
67275;DHT22;55463;52.324;5.122;2023-05-19T06:19:59;12.86;83.48
67275;DHT22;55463;52.324;5.122;2023-05-19T06:22:25;13.11;82.72
67275;DHT22;55463;52.324;5.122;2023-05-19T06:24:51;13.39;81.60
67275;DHT22;55463;52.324;5.122;2023-05-19T06:27:17;13.70;81.01
67275;DHT22;55463;52.324;5.122;2023-05-19T06:29:42;14.10;80.93
67275;DHT22;55463;52.324;5.122;2023-05-19T06:32:07;14.20;79.19
67275;DHT22;55463;52.324;5.122;2023-05-19T06:34:33;14.45;79.45
67275;DHT22;55463;52.324;5.122;2023-05-19T06:36:58;14.49;77.56
67275;DHT22;55463;52.324;5.122;2023-05-19T06:39:26;14.76;79.83
67275;DHT22;55463;52.324;5.122;2023-05-19T06:41:51;14.98;77.04
67275;DHT22;55463;52.324;5.122;2023-05-19T06:44:17;15.07;77.07
67275;DHT22;55463;52.324;5.122;2023-05-19T06:46:42;15.18;75.85
67275;DHT22;55463;52.324;5.122;2023-05-19T06:49:09;15.15;76.56
67275;DHT22;55463;52.324;5.122;2023-05-19T06:51:35;15.46;76.16
67275;DHT22;55463;52.324;5.122;2023-05-19T06:54:00;15.90;76.28
67275;DHT22;55463;52.324;5.122;2023-05-19T06:56:28;16.05;73.04
67275;DHT22;55463;52.324;5.122;2023-05-19T06:58:54;16.42;73.24
67275;DHT22;55463;52.324;5.122;2023-05-19T07:01:19;16.26;72.17
67275;DHT22;55463;52.324;5.122;2023-05-19T07:03:46;16.76;71.68
67275;DHT22;55463;52.324;5.122;2023-05-19T07:06:11;17.27;71.25
67275;DHT22;55463;52.324;5.122;2023-05-19T07:08:37;17.38;71.91
67275;DHT22;55463;52.324;5.122;2023-05-19T07:11:02;17.24;68.97
67275;DHT22;55463;52.324;5.122;2023-05-19T07:13:28;16.79;69.40
67275;DHT22;55463;52.324;5.122;2023-05-19T07:15:53;16.83;70.26
67275;DHT22;55463;52.324;5.122;2023-05-19T07:18:20;16.73;69.97
67275;DHT22;55463;52.324;5.122;2023-05-19T07:20:46;17.14;70.03
67275;DHT22;55463;52.324;5.122;2023-05-19T07:23:11;17.93;69.57
67275;DHT22;55463;52.324;5.122;2023-05-19T07:25:37;17.93;67.43
67275;DHT22;55463;52.324;5.122;2023-05-19T07:28:02;17.90;67.65
67275;DHT22;55463;52.324;5.122;2023-05-19T07:30:27;18.34;67.79
67275;DHT22;55463;52.324;5.122;2023-05-19T07:32:54;18.76;66.38
67275;DHT22;55463;52.324;5.122;2023-05-19T07:35:19;18.67;64.76
67275;DHT22;55463;52.324;5.122;2023-05-19T07:37:47;18.97;65.33
67275;DHT22;55463;52.324;5.122;2023-05-19T07:40:13;18.80;64.58
67275;DHT22;55463;52.324;5.122;2023-05-19T07:42:39;18.86;64.22
67275;DHT22;55463;52.324;5.122;2023-05-19T07:45:05;18.70;63.66
67275;DHT22;55463;52.324;5.122;2023-05-19T07:47:31;18.56;64.82
67275;DHT22;55463;52.324;5.122;2023-05-19T07:49:56;18.94;63.45
67275;DHT22;55463;52.324;5.122;2023-05-19T07:52:22;19.42;64.23
67275;DHT22;55463;52.324;5.122;2023-05-19T07:54:47;19.84;63.50
67275;DHT22;55463;52.324;5.122;2023-05-19T07:57:12;20.26;62.01
67275;DHT22;55463;52.324;5.122;2023-05-19T07:59:38;20.22;63.15
67275;DHT22;55463;52.324;5.122;2023-05-19T08:02:04;20.46;60.33
67275;DHT22;55463;52.324;5.122;2023-05-19T08:04:30;20.84;59.69
67275;DHT22;55463;52.324;5.122;2023-05-19T08:06:55;21.15;59.89
67275;DHT22;55463;52.324;5.122;2023-05-19T08:09:20;21.32;57.40
67275;DHT22;55463;52.324;5.122;2023-05-19T08:11:46;21.63;57.33
67275;DHT22;55463;52.324;5.122;2023-05-19T08:14:11;22.18;56.53
67275;DHT22;55463;52.324;5.122;2023-05-19T08:16:37;22.32;56.44
67275;DHT22;55463;52.324;5.122;2023-05-19T08:19:02;22.42;56.35
67275;DHT22;55463;52.324;5.122;2023-05-19T08:21:29;22.37;56.02
67275;DHT22;55463;52.324;5.122;2023-05-19T08:23:59;22.32;55.76
67275;DHT22;55463;52.324;5.122;2023-05-19T08:26:24;22.59;55.53
67275;DHT22;55463;52.324;5.122;2023-05-19T08:28:50;22.41;54.23
67275;DHT22;55463;52.324;5.122;2023-05-19T08:31:15;22.75;52.20
67275;DHT22;55463;52.324;5.122;2023-05-19T08:33:42;23.22;51.95
67275;DHT22;55463;52.324;5.122;2023-05-19T08:36:08;23.54;52.54
67275;DHT22;55463;52.324;5.122;2023-05-19T08:38:33;23.08;48.87
67275;DHT22;55463;52.324;5.122;2023-05-19T08:40:58;22.17;51.55
67275;DHT22;55463;52.324;5.122;2023-05-19T08:43:34;22.48;52.67
67275;DHT22;55463;52.324;5.122;2023-05-19T08:45:59;22.39;52.58
67275;DHT22;55463;52.324;5.122;2023-05-19T08:48:28;21.70;51.35
67275;DHT22;55463;52.324;5.122;2023-05-19T08:51:10;22.82;52.49
67275;DHT22;55463;52.324;5.122;2023-05-19T08:53:39;23.39;52.83
67275;DHT22;55463;52.324;5.122;2023-05-19T08:56:14;23.11;48.57
67275;DHT22;55463;52.324;5.122;2023-05-19T08:58:41;23.52;49.46
67275;DHT22;55463;52.324;5.122;2023-05-19T09:01:09;23.34;48.49
67275;DHT22;55463;52.324;5.122;2023-05-19T09:03:37;23.24;50.16
67275;DHT22;55463;52.324;5.122;2023-05-19T09:06:07;23.41;49.22
67275;DHT22;55463;52.324;5.122;2023-05-19T09:08:42;23.29;48.09
67275;DHT22;55463;52.324;5.122;2023-05-19T09:11:08;23.70;48.31
67275;DHT22;55463;52.324;5.122;2023-05-19T09:13:34;23.66;46.83
67275;DHT22;55463;52.324;5.122;2023-05-19T09:15:59;23.22;45.37
67275;DHT22;55463;52.324;5.122;2023-05-19T09:18:26;24.17;48.18
67275;DHT22;55463;52.324;5.122;2023-05-19T09:21:02;24.49;48.19
67275;DHT22;55463;52.324;5.122;2023-05-19T09:23:30;24.73;47.56
67275;DHT22;55463;52.324;5.122;2023-05-19T09:26:04;24.48;47.51
67275;DHT22;55463;52.324;5.122;2023-05-19T09:28:33;24.00;46.35
67275;DHT22;55463;52.324;5.122;2023-05-19T09:33:28;24.63;48.31
67275;DHT22;55463;52.324;5.122;2023-05-19T09:35:55;24.35;46.14
67275;DHT22;55463;52.324;5.122;2023-05-19T09:38:23;23.67;45.91
67275;DHT22;55463;52.324;5.122;2023-05-19T09:40:48;24.21;46.05
67275;DHT22;55463;52.324;5.122;2023-05-19T09:43:16;24.76;47.40
67275;DHT22;55463;52.324;5.122;2023-05-19T09:45:41;24.25;45.21
67275;DHT22;55463;52.324;5.122;2023-05-19T09:48:07;24.32;46.02
67275;DHT22;55463;52.324;5.122;2023-05-19T09:50:32;23.69;45.27
67275;DHT22;55463;52.324;5.122;2023-05-19T09:52:58;23.75;46.62
67275;DHT22;55463;52.324;5.122;2023-05-19T09:55:25;23.87;46.50
67275;DHT22;55463;52.324;5.122;2023-05-19T09:57:54;24.49;46.69
67275;DHT22;55463;52.324;5.122;2023-05-19T10:00:21;25.04;44.40
67275;DHT22;55463;52.324;5.122;2023-05-19T10:02:48;25.27;45.68
67275;DHT22;55463;52.324;5.122;2023-05-19T10:05:16;25.08;44.71
67275;DHT22;55463;52.324;5.122;2023-05-19T10:07:49;24.73;44.63
67275;DHT22;55463;52.324;5.122;2023-05-19T10:10:15;23.46;44.02
67275;DHT22;55463;52.324;5.122;2023-05-19T10:12:41;24.07;45.87
67275;DHT22;55463;52.324;5.122;2023-05-19T10:15:12;24.42;45.96
67275;DHT22;55463;52.324;5.122;2023-05-19T10:17:38;24.14;45.23
67275;DHT22;55463;52.324;5.122;2023-05-19T10:20:11;23.89;46.70
67275;DHT22;55463;52.324;5.122;2023-05-19T10:22:37;24.29;47.89
67275;DHT22;55463;52.324;5.122;2023-05-19T10:25:04;23.21;45.89
67275;DHT22;55463;52.324;5.122;2023-05-19T10:27:30;23.34;45.56
67275;DHT22;55463;52.324;5.122;2023-05-19T10:30:00;23.49;46.78
67275;DHT22;55463;52.324;5.122;2023-05-19T10:32:28;23.89;47.02
67275;DHT22;55463;52.324;5.122;2023-05-19T10:40:39;25.08;47.41
67275;DHT22;55463;52.324;5.122;2023-05-19T10:43:20;24.93;45.91
67275;DHT22;55463;52.324;5.122;2023-05-19T10:45:51;23.75;46.88
67275;DHT22;55463;52.324;5.122;2023-05-19T10:48:19;24.58;49.03
67275;DHT22;55463;52.324;5.122;2023-05-19T10:50:46;24.20;48.07
67275;DHT22;55463;52.324;5.122;2023-05-19T10:53:15;24.51;48.24
67275;DHT22;55463;52.324;5.122;2023-05-19T10:55:52;25.13;48.32
67275;DHT22;55463;52.324;5.122;2023-05-19T10:58:58;24.89;48.51
67275;DHT22;55463;52.324;5.122;2023-05-19T11:01:34;24.39;48.41
67275;DHT22;55463;52.324;5.122;2023-05-19T11:04:07;23.99;48.58
67275;DHT22;55463;52.324;5.122;2023-05-19T11:06:36;23.59;50.02
67275;DHT22;55463;52.324;5.122;2023-05-19T11:09:16;23.35;50.05
67275;DHT22;55463;52.324;5.122;2023-05-19T11:11:50;24.09;50.06
67275;DHT22;55463;52.324;5.122;2023-05-19T11:14:20;24.07;49.84
67275;DHT22;55463;52.324;5.122;2023-05-19T11:16:48;24.65;49.85
67275;DHT22;55463;52.324;5.122;2023-05-19T11:19:28;25.39;49.16
67275;DHT22;55463;52.324;5.122;2023-05-19T11:21:54;23.86;47.71
67275;DHT22;55463;52.324;5.122;2023-05-19T11:24:46;24.00;47.25
67275;DHT22;55463;52.324;5.122;2023-05-19T11:29:52;25.07;48.73
67275;DHT22;55463;52.324;5.122;2023-05-19T11:32:19;25.37;46.72
67275;DHT22;55463;52.324;5.122;2023-05-19T11:34:47;25.20;48.44
67275;DHT22;55463;52.324;5.122;2023-05-19T11:37:12;24.51;47.09
67275;DHT22;55463;52.324;5.122;2023-05-19T11:39:38;24.99;48.68
67275;DHT22;55463;52.324;5.122;2023-05-19T11:42:04;25.16;47.64
67275;DHT22;55463;52.324;5.122;2023-05-19T11:44:30;25.45;47.89
67275;DHT22;55463;52.324;5.122;2023-05-19T11:46:57;25.06;49.14
67275;DHT22;55463;52.324;5.122;2023-05-19T11:49:23;24.75;46.48
67275;DHT22;55463;52.324;5.122;2023-05-19T11:51:48;25.30;48.72
67275;DHT22;55463;52.324;5.122;2023-05-19T11:54:14;25.02;47.72
67275;DHT22;55463;52.324;5.122;2023-05-19T11:56:42;24.89;48.07
67275;DHT22;55463;52.324;5.122;2023-05-19T11:59:08;24.94;48.36
67275;DHT22;55463;52.324;5.122;2023-05-19T12:01:34;24.94;48.49
67275;DHT22;55463;52.324;5.122;2023-05-19T12:04:01;25.21;49.56
67275;DHT22;55463;52.324;5.122;2023-05-19T12:06:27;24.99;48.34
67275;DHT22;55463;52.324;5.122;2023-05-19T12:08:53;24.96;48.93
67275;DHT22;55463;52.324;5.122;2023-05-19T12:11:19;25.06;47.85
67275;DHT22;55463;52.324;5.122;2023-05-19T12:13:46;25.02;47.43
67275;DHT22;55463;52.324;5.122;2023-05-19T12:16:11;25.30;48.71
67275;DHT22;55463;52.324;5.122;2023-05-19T12:18:37;24.52;47.29
67275;DHT22;55463;52.324;5.122;2023-05-19T12:21:04;24.72;48.20
67275;DHT22;55463;52.324;5.122;2023-05-19T12:23:31;24.87;48.09
67275;DHT22;55463;52.324;5.122;2023-05-19T12:25:58;25.03;48.41
67275;DHT22;55463;52.324;5.122;2023-05-19T12:28:25;24.69;48.89
67275;DHT22;55463;52.324;5.122;2023-05-19T12:30:51;24.82;48.47
67275;DHT22;55463;52.324;5.122;2023-05-19T12:33:18;24.87;48.72
67275;DHT22;55463;52.324;5.122;2023-05-19T12:35:47;24.56;48.12
67275;DHT22;55463;52.324;5.122;2023-05-19T12:38:14;24.59;49.55
67275;DHT22;55463;52.324;5.122;2023-05-19T12:40:41;24.52;49.98
67275;DHT22;55463;52.324;5.122;2023-05-19T12:43:06;24.39;49.11
67275;DHT22;55463;52.324;5.122;2023-05-19T12:45:38;24.34;48.76
67275;DHT22;55463;52.324;5.122;2023-05-19T12:48:07;24.42;49.53
67275;DHT22;55463;52.324;5.122;2023-05-19T12:50:35;24.66;51.37
67275;DHT22;55463;52.324;5.122;2023-05-19T12:53:01;24.41;49.27
67275;DHT22;55463;52.324;5.122;2023-05-19T12:55:27;24.55;49.68
67275;DHT22;55463;52.324;5.122;2023-05-19T12:57:52;25.06;48.85
67275;DHT22;55463;52.324;5.122;2023-05-19T13:00:23;24.65;48.11
67275;DHT22;55463;52.324;5.122;2023-05-19T13:02:59;24.09;48.54
67275;DHT22;55463;52.324;5.122;2023-05-19T13:05:27;24.18;49.08
67275;DHT22;55463;52.324;5.122;2023-05-19T13:08:13;23.97;47.57
67275;DHT22;55463;52.324;5.122;2023-05-19T13:10:40;23.97;47.85
67275;DHT22;55463;52.324;5.122;2023-05-19T13:13:07;24.09;48.98
67275;DHT22;55463;52.324;5.122;2023-05-19T13:15:35;23.66;48.43
67275;DHT22;55463;52.324;5.122;2023-05-19T13:18:03;23.56;47.86
67275;DHT22;55463;52.324;5.122;2023-05-19T13:20:30;23.63;49.45
67275;DHT22;55463;52.324;5.122;2023-05-19T13:22:57;23.07;50.12
67275;DHT22;55463;52.324;5.122;2023-05-19T13:25:23;23.24;50.72
67275;DHT22;55463;52.324;5.122;2023-05-19T13:27:48;23.31;50.20
67275;DHT22;55463;52.324;5.122;2023-05-19T13:30:14;22.94;49.17
67275;DHT22;55463;52.324;5.122;2023-05-19T13:32:43;23.25;50.96
67275;DHT22;55463;52.324;5.122;2023-05-19T13:35:09;23.03;49.72
67275;DHT22;55463;52.324;5.122;2023-05-19T13:37:37;23.08;49.56
67275;DHT22;55463;52.324;5.122;2023-05-19T13:40:04;22.94;51.63
67275;DHT22;55463;52.324;5.122;2023-05-19T13:42:31;22.83;49.43
67275;DHT22;55463;52.324;5.122;2023-05-19T13:44:57;22.87;50.14
67275;DHT22;55463;52.324;5.122;2023-05-19T13:47:22;22.53;49.63
67275;DHT22;55463;52.324;5.122;2023-05-19T13:49:48;22.70;47.58
67275;DHT22;55463;52.324;5.122;2023-05-19T13:52:14;22.52;47.60
67275;DHT22;55463;52.324;5.122;2023-05-19T13:54:39;22.39;47.62
67275;DHT22;55463;52.324;5.122;2023-05-19T13:57:05;22.39;48.85
67275;DHT22;55463;52.324;5.122;2023-05-19T13:59:30;22.70;48.72
67275;DHT22;55463;52.324;5.122;2023-05-19T14:01:56;22.75;47.09
67275;DHT22;55463;52.324;5.122;2023-05-19T14:04:22;23.38;49.75
67275;DHT22;55463;52.324;5.122;2023-05-19T14:06:50;23.77;46.82
67275;DHT22;55463;52.324;5.122;2023-05-19T14:09:16;23.38;45.32
67275;DHT22;55463;52.324;5.122;2023-05-19T14:11:42;23.35;45.64
67275;DHT22;55463;52.324;5.122;2023-05-19T14:14:07;23.25;44.80
67275;DHT22;55463;52.324;5.122;2023-05-19T14:16:33;23.29;45.90
67275;DHT22;55463;52.324;5.122;2023-05-19T14:18:58;23.17;45.79
67275;DHT22;55463;52.324;5.122;2023-05-19T14:21:23;23.17;45.97
67275;DHT22;55463;52.324;5.122;2023-05-19T14:23:49;23.04;45.29
67275;DHT22;55463;52.324;5.122;2023-05-19T14:26:14;22.83;46.63
67275;DHT22;55463;52.324;5.122;2023-05-19T14:28:40;22.65;45.48
67275;DHT22;55463;52.324;5.122;2023-05-19T14:31:10;22.07;45.96
67275;DHT22;55463;52.324;5.122;2023-05-19T14:33:39;22.39;48.41
67275;DHT22;55463;52.324;5.122;2023-05-19T14:36:06;22.59;49.55
67275;DHT22;55463;52.324;5.122;2023-05-19T14:38:31;22.24;46.47
67275;DHT22;55463;52.324;5.122;2023-05-19T14:40:57;22.41;48.00
67275;DHT22;55463;52.324;5.122;2023-05-19T14:43:22;22.32;47.49
67275;DHT22;55463;52.324;5.122;2023-05-19T14:45:48;22.41;49.38
67275;DHT22;55463;52.324;5.122;2023-05-19T14:48:13;22.25;48.91
67275;DHT22;55463;52.324;5.122;2023-05-19T14:50:39;21.94;49.58
67275;DHT22;55463;52.324;5.122;2023-05-19T14:53:05;21.39;49.93
67275;DHT22;55463;52.324;5.122;2023-05-19T14:55:30;21.25;49.42
67275;DHT22;55463;52.324;5.122;2023-05-19T14:57:56;21.37;50.77
67275;DHT22;55463;52.324;5.122;2023-05-19T15:00:24;21.63;51.56
67275;DHT22;55463;52.324;5.122;2023-05-19T15:02:55;21.92;53.12
67275;DHT22;55463;52.324;5.122;2023-05-19T15:05:21;22.15;52.93
67275;DHT22;55463;52.324;5.122;2023-05-19T15:07:49;22.39;53.62
67275;DHT22;55463;52.324;5.122;2023-05-19T15:10:16;22.31;52.76
67275;DHT22;55463;52.324;5.122;2023-05-19T15:12:41;22.41;53.71
67275;DHT22;55463;52.324;5.122;2023-05-19T15:15:07;22.41;53.01
67275;DHT22;55463;52.324;5.122;2023-05-19T15:17:33;22.17;53.25
67275;DHT22;55463;52.324;5.122;2023-05-19T15:19:58;22.15;53.66
67275;DHT22;55463;52.324;5.122;2023-05-19T15:22:23;21.92;52.48
67275;DHT22;55463;52.324;5.122;2023-05-19T15:24:49;22.10;53.11
67275;DHT22;55463;52.324;5.122;2023-05-19T15:27:14;22.28;52.91
67275;DHT22;55463;52.324;5.122;2023-05-19T15:29:40;22.11;52.82
67275;DHT22;55463;52.324;5.122;2023-05-19T15:32:06;21.94;53.42
67275;DHT22;55463;52.324;5.122;2023-05-19T15:34:31;21.62;53.70
67275;DHT22;55463;52.324;5.122;2023-05-19T15:36:57;21.69;54.48
67275;DHT22;55463;52.324;5.122;2023-05-19T15:39:22;21.75;55.21
67275;DHT22;55463;52.324;5.122;2023-05-19T15:41:49;21.67;55.29
67275;DHT22;55463;52.324;5.122;2023-05-19T15:44:15;21.25;55.17
67275;DHT22;55463;52.324;5.122;2023-05-19T15:46:41;21.39;55.12
67275;DHT22;55463;52.324;5.122;2023-05-19T15:49:06;21.58;56.10
67275;DHT22;55463;52.324;5.122;2023-05-19T15:51:32;21.66;59.57
67275;DHT22;55463;52.324;5.122;2023-05-19T15:53:57;21.45;60.63
67275;DHT22;55463;52.324;5.122;2023-05-19T15:56:22;21.53;61.19
67275;DHT22;55463;52.324;5.122;2023-05-19T15:58:48;21.42;60.55
67275;DHT22;55463;52.324;5.122;2023-05-19T16:01:17;21.50;61.00
67275;DHT22;55463;52.324;5.122;2023-05-19T16:03:46;21.45;60.88
67275;DHT22;55463;52.324;5.122;2023-05-19T16:06:11;21.45;60.73